sensor_id;sensor_type;location;lat;lon;timestamp;pressure;altitude;pressure_sealevel;temperature;humidity
3464;BME280;3551;41.578;24.706;2022-08-19T00:01:12;91136.88;;;18.80;84.06
3464;BME280;3551;41.578;24.706;2022-08-19T00:03:39;91151.19;;;18.80;84.15
3464;BME280;3551;41.578;24.706;2022-08-19T00:06:08;91157.50;;;18.77;84.06
3464;BME280;3551;41.578;24.706;2022-08-19T00:08:35;91139.75;;;18.76;83.04
3464;BME280;3551;41.578;24.706;2022-08-19T00:11:02;91145.00;;;19.01;82.42
3464;BME280;3551;41.578;24.706;2022-08-19T00:13:30;91150.28;;;19.05;83.35
3464;BME280;3551;41.578;24.706;2022-08-19T00:15:57;91158.28;;;19.08;82.89
3464;BME280;3551;41.578;24.706;2022-08-19T00:18:26;91108.16;;;18.39;84.29
3464;BME280;3551;41.578;24.706;2022-08-19T00:20:53;91138.47;;;18.46;85.36
3464;BME280;3551;41.578;24.706;2022-08-19T00:23:22;91136.75;;;18.40;85.22
3464;BME280;3551;41.578;24.706;2022-08-19T00:25:49;91105.25;;;18.33;84.01
3464;BME280;3551;41.578;24.706;2022-08-19T00:28:17;91153.59;;;18.57;83.40
3464;BME280;3551;41.578;24.706;2022-08-19T00:30:46;91147.22;;;18.50;84.00
3464;BME280;3551;41.578;24.706;2022-08-19T00:33:13;91132.59;;;18.48;85.39
3464;BME280;3551;41.578;24.706;2022-08-19T00:35:42;91129.69;;;18.42;85.26
3464;BME280;3551;41.578;24.706;2022-08-19T00:38:09;91118.38;;;18.57;82.93
3464;BME280;3551;41.578;24.706;2022-08-19T00:40:37;91123.56;;;18.64;82.28
3464;BME280;3551;41.578;24.706;2022-08-19T00:43:08;91094.38;;;18.24;83.22
3464;BME280;3551;41.578;24.706;2022-08-19T00:45:35;91132.59;;;18.48;84.08
3464;BME280;3551;41.578;24.706;2022-08-19T00:48:03;91126.03;;;18.71;82.23
3464;BME280;3551;41.578;24.706;2022-08-19T00:50:31;91124.22;;;18.77;82.51
3464;BME280;3551;41.578;24.706;2022-08-19T00:52:58;91138.28;;;18.63;83.07
3464;BME280;3551;41.578;24.706;2022-08-19T00:55:26;91126.88;;;18.46;85.19
3464;BME280;3551;41.578;24.706;2022-08-19T00:58:03;91119.09;;;18.70;84.84
3464;BME280;3551;41.578;24.706;2022-08-19T01:00:31;91111.53;;;18.65;84.38
3464;BME280;3551;41.578;24.706;2022-08-19T01:03:02;91098.06;;;18.52;84.90
3464;BME280;3551;41.578;24.706;2022-08-19T01:05:29;91079.97;;;18.49;84.75
3464;BME280;3551;41.578;24.706;2022-08-19T01:07:58;91108.84;;;18.30;85.22
3464;BME280;3551;41.578;24.706;2022-08-19T01:10:31;91091.25;;;18.26;85.67
3464;BME280;3551;41.578;24.706;2022-08-19T01:13:01;91138.16;;;18.44;85.72
3464;BME280;3551;41.578;24.706;2022-08-19T01:15:31;91112.28;;;18.65;84.65
3464;BME280;3551;41.578;24.706;2022-08-19T01:18:01;91098.69;;;18.56;85.06
3464;BME280;3551;41.578;24.706;2022-08-19T01:20:31;91099.72;;;18.37;84.64
3464;BME280;3551;41.578;24.706;2022-08-19T01:23:01;91069.38;;;17.98;83.83
3464;BME280;3551;41.578;24.706;2022-08-19T01:25:31;91089.34;;;17.92;85.00
3464;BME280;3551;41.578;24.706;2022-08-19T01:27:59;91100.53;;;18.03;84.60
3464;BME280;3551;41.578;24.706;2022-08-19T01:30:28;91088.91;;;18.15;86.10
3464;BME280;3551;41.578;24.706;2022-08-19T01:32:55;91075.41;;;18.24;84.42
3464;BME280;3551;41.578;24.706;2022-08-19T01:35:25;91087.16;;;18.21;83.40
3464;BME280;3551;41.578;24.706;2022-08-19T01:37:57;91067.88;;;18.19;83.54
3464;BME280;3551;41.578;24.706;2022-08-19T01:40:27;91099.38;;;18.47;83.42
3464;BME280;3551;41.578;24.706;2022-08-19T01:42:55;91098.53;;;18.38;84.13
3464;BME280;3551;41.578;24.706;2022-08-19T01:45:25;91094.88;;;18.32;84.21
3464;BME280;3551;41.578;24.706;2022-08-19T01:47:53;91082.16;;;17.98;85.25
3464;BME280;3551;41.578;24.706;2022-08-19T01:50:21;91103.06;;;17.97;86.51
3464;BME280;3551;41.578;24.706;2022-08-19T01:52:48;91096.13;;;17.96;85.83
3464;BME280;3551;41.578;24.706;2022-08-19T01:55:17;91102.00;;;18.17;84.87
3464;BME280;3551;41.578;24.706;2022-08-19T01:57:47;91119.41;;;18.16;85.35
3464;BME280;3551;41.578;24.706;2022-08-19T02:00:18;91132.88;;;17.72;86.59
3464;BME280;3551;41.578;24.706;2022-08-19T02:02:45;91101.91;;;17.86;85.66
3464;BME280;3551;41.578;24.706;2022-08-19T02:05:13;91102.44;;;17.81;86.33
3464;BME280;3551;41.578;24.706;2022-08-19T02:07:44;91086.28;;;17.68;85.68
3464;BME280;3551;41.578;24.706;2022-08-19T02:10:14;91098.06;;;17.62;87.04
3464;BME280;3551;41.578;24.706;2022-08-19T02:12:41;91101.47;;;17.87;86.24
3464;BME280;3551;41.578;24.706;2022-08-19T02:15:10;91107.72;;;17.63;87.45
3464;BME280;3551;41.578;24.706;2022-08-19T02:17:37;91093.97;;;17.57;87.19
3464;BME280;3551;41.578;24.706;2022-08-19T02:20:06;91131.16;;;17.53;89.83
3464;BME280;3551;41.578;24.706;2022-08-19T02:22:34;91118.38;;;17.79;88.26
3464;BME280;3551;41.578;24.706;2022-08-19T02:25:01;91113.44;;;17.65;88.77
3464;BME280;3551;41.578;24.706;2022-08-19T02:27:30;91077.13;;;17.28;89.32
3464;BME280;3551;41.578;24.706;2022-08-19T02:29:59;91132.66;;;17.67;88.93
3464;BME280;3551;41.578;24.706;2022-08-19T02:32:27;91118.16;;;17.73;88.36
3464;BME280;3551;41.578;24.706;2022-08-19T02:34:55;91127.63;;;17.90;87.81
3464;BME280;3551;41.578;24.706;2022-08-19T02:37:22;91127.72;;;17.65;89.41
3464;BME280;3551;41.578;24.706;2022-08-19T02:40:07;91125.88;;;17.96;88.50
3464;BME280;3551;41.578;24.706;2022-08-19T02:42:35;91136.69;;;18.09;87.29
3464;BME280;3551;41.578;24.706;2022-08-19T02:45:02;91125.84;;;18.09;86.63
3464;BME280;3551;41.578;24.706;2022-08-19T02:47:38;91108.81;;;17.87;85.63
3464;BME280;3551;41.578;24.706;2022-08-19T02:50:06;91118.28;;;18.04;84.91
3464;BME280;3551;41.578;24.706;2022-08-19T02:52:34;91113.13;;;17.97;84.52
3464;BME280;3551;41.578;24.706;2022-08-19T02:55:01;91128.56;;;18.09;84.24
3464;BME280;3551;41.578;24.706;2022-08-19T02:57:30;91142.88;;;17.97;85.74
3464;BME280;3551;41.578;24.706;2022-08-19T02:59:58;91131.25;;;17.75;87.55
3464;BME280;3551;41.578;24.706;2022-08-19T03:02:26;91129.75;;;17.61;87.87
3464;BME280;3551;41.578;24.706;2022-08-19T03:04:55;91132.47;;;17.61;87.37
3464;BME280;3551;41.578;24.706;2022-08-19T03:07:22;91127.81;;;17.62;87.08
3464;BME280;3551;41.578;24.706;2022-08-19T03:09:49;91127.72;;;17.65;87.29
3464;BME280;3551;41.578;24.706;2022-08-19T03:12:16;91102.53;;;17.56;86.57
3464;BME280;3551;41.578;24.706;2022-08-19T03:14:43;91142.53;;;17.35;89.48
3464;BME280;3551;41.578;24.706;2022-08-19T03:17:11;91128.47;;;17.40;89.46
3464;BME280;3551;41.578;24.706;2022-08-19T03:19:38;91136.91;;;17.55;88.52
3464;BME280;3551;41.578;24.706;2022-08-19T03:22:06;91129.00;;;17.61;87.21
3464;BME280;3551;41.578;24.706;2022-08-19T03:24:33;91135.94;;;17.62;87.32
3464;BME280;3551;41.578;24.706;2022-08-19T03:27:00;91143.94;;;17.65;87.40
3464;BME280;3551;41.578;24.706;2022-08-19T03:29:31;91149.44;;;17.74;86.67
3464;BME280;3551;41.578;24.706;2022-08-19T03:31:59;91138.53;;;17.65;87.47
3464;BME280;3551;41.578;24.706;2022-08-19T03:34:30;91145.66;;;17.47;89.09
3464;BME280;3551;41.578;24.706;2022-08-19T03:36:59;91132.91;;;17.09;89.92
3464;BME280;3551;41.578;24.706;2022-08-19T03:39:28;91144.81;;;17.24;90.65
3464;BME280;3551;41.578;24.706;2022-08-19T03:41:55;91171.94;;;17.46;89.07
3464;BME280;3551;41.578;24.706;2022-08-19T03:44:25;91158.13;;;17.57;87.92
3464;BME280;3551;41.578;24.706;2022-08-19T03:46:55;91156.50;;;17.59;87.62
3464;BME280;3551;41.578;24.706;2022-08-19T03:49:24;91153.03;;;17.71;87.75
3464;BME280;3551;41.578;24.706;2022-08-19T03:51:53;91143.50;;;17.67;87.23
3464;BME280;3551;41.578;24.706;2022-08-19T03:54:22;91161.97;;;17.81;86.92
3464;BME280;3551;41.578;24.706;2022-08-19T03:56:52;91165.22;;;17.88;87.19
3464;BME280;3551;41.578;24.706;2022-08-19T03:59:24;91156.03;;;17.86;87.15
3464;BME280;3551;41.578;24.706;2022-08-19T04:01:51;91165.13;;;17.79;87.27
3464;BME280;3551;41.578;24.706;2022-08-19T04:04:19;91143.06;;;17.43;87.74
3464;BME280;3551;41.578;24.706;2022-08-19T04:06:47;91163.88;;;17.93;86.90
3464;BME280;3551;41.578;24.706;2022-08-19T04:09:14;91163.69;;;17.87;86.92
3464;BME280;3551;41.578;24.706;2022-08-19T04:11:43;91158.09;;;17.69;88.05
3464;BME280;3551;41.578;24.706;2022-08-19T04:14:14;91159.41;;;17.77;87.46
3464;BME280;3551;41.578;24.706;2022-08-19T04:16:43;91165.66;;;17.49;90.17
3464;BME280;3551;41.578;24.706;2022-08-19T04:19:12;91155.94;;;17.64;88.79
3464;BME280;3551;41.578;24.706;2022-08-19T04:21:39;91125.97;;;17.46;89.22
3464;BME280;3551;41.578;24.706;2022-08-19T04:24:09;91166.38;;;17.87;88.65
3464;BME280;3551;41.578;24.706;2022-08-19T04:26:36;91158.53;;;17.68;89.18
3464;BME280;3551;41.578;24.706;2022-08-19T04:29:07;91139.69;;;17.77;87.51
3464;BME280;3551;41.578;24.706;2022-08-19T04:31:35;91164.47;;;17.75;88.78
3464;BME280;3551;41.578;24.706;2022-08-19T04:34:05;91174.22;;;18.07;88.28
3464;BME280;3551;41.578;24.706;2022-08-19T04:36:35;91167.97;;;18.66;85.54
3464;BME280;3551;41.578;24.706;2022-08-19T04:39:05;91179.25;;;19.39;80.06
3464;BME280;3551;41.578;24.706;2022-08-19T04:41:33;91152.44;;;19.90;78.09
3464;BME280;3551;41.578;24.706;2022-08-19T04:44:18;91147.97;;;20.59;73.49
3464;BME280;3551;41.578;24.706;2022-08-19T04:46:48;91170.13;;;21.03;71.40
3464;BME280;3551;41.578;24.706;2022-08-19T04:49:17;91146.34;;;21.22;70.45
3464;BME280;3551;41.578;24.706;2022-08-19T04:51:46;91141.84;;;21.19;69.99
3464;BME280;3551;41.578;24.706;2022-08-19T04:54:14;91163.41;;;21.73;68.58
3464;BME280;3551;41.578;24.706;2022-08-19T04:56:42;91140.94;;;21.97;66.11
3464;BME280;3551;41.578;24.706;2022-08-19T04:59:09;91153.03;;;22.67;64.39
3464;BME280;3551;41.578;24.706;2022-08-19T05:01:37;91131.91;;;22.91;61.77
3464;BME280;3551;41.578;24.706;2022-08-19T05:04:06;91163.53;;;23.41;61.95
3464;BME280;3551;41.578;24.706;2022-08-19T05:06:34;91163.22;;;22.95;63.50
3464;BME280;3551;41.578;24.706;2022-08-19T05:09:02;91147.44;;;23.00;64.39
3464;BME280;3551;41.578;24.706;2022-08-19T05:11:33;91158.16;;;23.18;62.30
3464;BME280;3551;41.578;24.706;2022-08-19T05:14:00;91157.19;;;23.06;62.72
3464;BME280;3551;41.578;24.706;2022-08-19T05:16:27;91168.97;;;23.27;62.16
3464;BME280;3551;41.578;24.706;2022-08-19T05:18:55;91163.81;;;23.29;61.67
3464;BME280;3551;41.578;24.706;2022-08-19T05:21:43;91145.34;;;23.53;61.32
3464;BME280;3551;41.578;24.706;2022-08-19T05:24:28;91159.88;;;23.44;61.00
3464;BME280;3551;41.578;24.706;2022-08-19T05:26:56;91134.25;;;23.91;60.90
3464;BME280;3551;41.578;24.706;2022-08-19T05:29:25;91152.56;;;24.20;59.97
3464;BME280;3551;41.578;24.706;2022-08-19T05:31:57;91148.75;;;23.97;58.25
3464;BME280;3551;41.578;24.706;2022-08-19T05:34:36;91148.75;;;24.52;58.67
3464;BME280;3551;41.578;24.706;2022-08-19T05:37:05;91160.06;;;25.06;58.66
3464;BME280;3551;41.578;24.706;2022-08-19T05:39:34;91151.66;;;25.35;56.55
3464;BME280;3551;41.578;24.706;2022-08-19T05:42:06;91151.75;;;25.46;55.88
3464;BME280;3551;41.578;24.706;2022-08-19T05:44:35;91153.81;;;25.83;54.74
3464;BME280;3551;41.578;24.706;2022-08-19T05:47:04;91163.94;;;25.71;55.49
3464;BME280;3551;41.578;24.706;2022-08-19T05:49:32;91153.16;;;25.62;56.49
3464;BME280;3551;41.578;24.706;2022-08-19T05:52:02;91146.00;;;25.70;54.76
3464;BME280;3551;41.578;24.706;2022-08-19T05:54:34;91156.91;;;26.01;52.54
3464;BME280;3551;41.578;24.706;2022-08-19T05:57:01;91148.03;;;26.12;53.65
3464;BME280;3551;41.578;24.706;2022-08-19T05:59:29;91136.34;;;25.80;52.90
3464;BME280;3551;41.578;24.706;2022-08-19T06:01:56;91159.47;;;26.47;51.97
3464;BME280;3551;41.578;24.706;2022-08-19T06:04:23;91169.19;;;26.48;53.07
3464;BME280;3551;41.578;24.706;2022-08-19T06:06:52;91151.59;;;26.18;53.98
3464;BME280;3551;41.578;24.706;2022-08-19T06:09:20;91155.94;;;26.41;53.38
3464;BME280;3551;41.578;24.706;2022-08-19T06:11:50;91154.66;;;26.37;54.43
3464;BME280;3551;41.578;24.706;2022-08-19T06:14:20;91161.50;;;26.58;54.08
3464;BME280;3551;41.578;24.706;2022-08-19T06:16:48;91155.22;;;27.11;52.27
3464;BME280;3551;41.578;24.706;2022-08-19T06:19:19;91158.69;;;27.00;52.79
3464;BME280;3551;41.578;24.706;2022-08-19T06:21:48;91165.50;;;27.38;51.25
3464;BME280;3551;41.578;24.706;2022-08-19T06:24:17;91151.53;;;27.25;51.65
3464;BME280;3551;41.578;24.706;2022-08-19T06:26:46;91156.59;;;27.65;51.30
3464;BME280;3551;41.578;24.706;2022-08-19T06:29:18;91156.81;;;27.67;52.25
3464;BME280;3551;41.578;24.706;2022-08-19T06:31:47;91145.84;;;27.56;51.14
3464;BME280;3551;41.578;24.706;2022-08-19T06:34:15;91159.09;;;27.74;50.44
3464;BME280;3551;41.578;24.706;2022-08-19T06:36:45;91158.06;;;28.00;49.39
3464;BME280;3551;41.578;24.706;2022-08-19T06:39:15;91162.56;;;28.03;50.91
3464;BME280;3551;41.578;24.706;2022-08-19T06:41:46;91153.81;;;28.32;50.18
3464;BME280;3551;41.578;24.706;2022-08-19T06:44:14;91156.81;;;28.28;49.66
3464;BME280;3551;41.578;24.706;2022-08-19T06:46:43;91156.22;;;28.58;48.36
3464;BME280;3551;41.578;24.706;2022-08-19T06:49:10;91162.00;;;28.60;48.33
3464;BME280;3551;41.578;24.706;2022-08-19T06:51:40;91139.22;;;28.59;48.47
3464;BME280;3551;41.578;24.706;2022-08-19T06:54:08;91141.44;;;28.83;47.62
3464;BME280;3551;41.578;24.706;2022-08-19T06:56:35;91148.09;;;28.98;47.01
3464;BME280;3551;41.578;24.706;2022-08-19T06:59:04;91140.09;;;29.00;47.50
3464;BME280;3551;41.578;24.706;2022-08-19T07:01:34;91154.81;;;29.09;48.49
3464;BME280;3551;41.578;24.706;2022-08-19T07:04:05;91132.16;;;28.86;46.44
3464;BME280;3551;41.578;24.706;2022-08-19T07:06:32;91143.53;;;29.12;46.58
3464;BME280;3551;41.578;24.706;2022-08-19T07:08:59;91140.69;;;29.34;46.63
3464;BME280;3551;41.578;24.706;2022-08-19T07:11:32;91118.94;;;29.61;45.48
3464;BME280;3551;41.578;24.706;2022-08-19T07:13:59;91137.66;;;29.73;47.61
3464;BME280;3551;41.578;24.706;2022-08-19T07:16:26;91127.19;;;29.66;45.77
3464;BME280;3551;41.578;24.706;2022-08-19T07:18:54;91140.91;;;29.72;46.08
3464;BME280;3551;41.578;24.706;2022-08-19T07:21:25;91136.78;;;29.54;44.94
3464;BME280;3551;41.578;24.706;2022-08-19T07:23:54;91131.66;;;29.69;38.61
3464;BME280;3551;41.578;24.706;2022-08-19T07:26:23;91147.59;;;29.87;41.59
3464;BME280;3551;41.578;24.706;2022-08-19T07:28:51;91121.78;;;29.49;38.83
3464;BME280;3551;41.578;24.706;2022-08-19T07:31:22;91129.13;;;29.77;39.85
3464;BME280;3551;41.578;24.706;2022-08-19T07:33:51;91129.22;;;29.60;40.36
3464;BME280;3551;41.578;24.706;2022-08-19T07:36:20;91124.19;;;29.99;37.36
3464;BME280;3551;41.578;24.706;2022-08-19T07:38:51;91128.31;;;29.87;37.11
3464;BME280;3551;41.578;24.706;2022-08-19T07:41:21;91114.59;;;30.06;37.50
3464;BME280;3551;41.578;24.706;2022-08-19T07:43:48;91119.69;;;30.26;38.50
3464;BME280;3551;41.578;24.706;2022-08-19T07:46:17;91144.16;;;30.41;38.07
3464;BME280;3551;41.578;24.706;2022-08-19T07:48:55;91124.09;;;30.10;35.60
3464;BME280;3551;41.578;24.706;2022-08-19T07:51:28;91113.63;;;30.03;37.55
3464;BME280;3551;41.578;24.706;2022-08-19T07:53:57;91133.47;;;30.26;37.74
3464;BME280;3551;41.578;24.706;2022-08-19T07:56:24;91141.22;;;30.28;37.02
3464;BME280;3551;41.578;24.706;2022-08-19T07:58:51;91150.91;;;30.40;34.60
3464;BME280;3551;41.578;24.706;2022-08-19T08:01:21;91121.66;;;29.66;34.25
3464;BME280;3551;41.578;24.706;2022-08-19T08:03:50;91125.13;;;30.32;34.67
3464;BME280;3551;41.578;24.706;2022-08-19T08:06:34;91107.97;;;30.44;37.39
3464;BME280;3551;41.578;24.706;2022-08-19T08:09:23;91108.16;;;30.22;38.29
3464;BME280;3551;41.578;24.706;2022-08-19T08:11:53;91132.75;;;29.96;34.38
3464;BME280;3551;41.578;24.706;2022-08-19T08:14:23;91136.34;;;29.85;34.49
3464;BME280;3551;41.578;24.706;2022-08-19T08:16:50;91101.22;;;29.56;37.36
3464;BME280;3551;41.578;24.706;2022-08-19T08:19:18;91136.91;;;29.73;34.93
3464;BME280;3551;41.578;24.706;2022-08-19T08:21:46;91133.88;;;29.76;35.68
3464;BME280;3551;41.578;24.706;2022-08-19T08:24:14;91140.38;;;29.79;35.56
3464;BME280;3551;41.578;24.706;2022-08-19T08:26:43;91115.22;;;29.93;38.76
3464;BME280;3551;41.578;24.706;2022-08-19T08:29:10;91115.22;;;29.58;37.16
3464;BME280;3551;41.578;24.706;2022-08-19T08:31:39;91128.44;;;29.30;38.31
3464;BME280;3551;41.578;24.706;2022-08-19T08:34:12;91116.06;;;29.01;34.49
3464;BME280;3551;41.578;24.706;2022-08-19T08:36:46;91142.06;;;29.06;35.07
3464;BME280;3551;41.578;24.706;2022-08-19T08:39:15;91127.84;;;29.48;35.94
3464;BME280;3551;41.578;24.706;2022-08-19T08:41:49;91133.75;;;29.93;35.38
3464;BME280;3551;41.578;24.706;2022-08-19T08:44:23;91116.16;;;30.26;33.85
3464;BME280;3551;41.578;24.706;2022-08-19T08:46:58;91136.13;;;30.37;33.78
3464;BME280;3551;41.578;24.706;2022-08-19T08:49:33;91129.69;;;30.53;33.55
3464;BME280;3551;41.578;24.706;2022-08-19T08:52:05;91125.09;;;30.61;32.72
3464;BME280;3551;41.578;24.706;2022-08-19T08:54:35;91131.88;;;30.06;32.34
3464;BME280;3551;41.578;24.706;2022-08-19T08:57:11;91144.19;;;30.05;32.96
3464;BME280;3551;41.578;24.706;2022-08-19T08:59:41;91127.31;;;30.15;32.88
3464;BME280;3551;41.578;24.706;2022-08-19T09:02:09;91112.47;;;29.93;32.04
3464;BME280;3551;41.578;24.706;2022-08-19T09:04:37;91122.63;;;30.04;32.81
3464;BME280;3551;41.578;24.706;2022-08-19T09:07:22;91108.56;;;30.07;34.57
3464;BME280;3551;41.578;24.706;2022-08-19T09:09:57;91110.13;;;30.03;33.25
3464;BME280;3551;41.578;24.706;2022-08-19T09:12:39;91110.00;;;30.14;34.22
3464;BME280;3551;41.578;24.706;2022-08-19T09:15:14;91102.03;;;29.75;33.81
3464;BME280;3551;41.578;24.706;2022-08-19T09:17:43;91086.88;;;29.28;34.05
3464;BME280;3551;41.578;24.706;2022-08-19T09:20:17;91076.78;;;29.71;34.49
3464;BME280;3551;41.578;24.706;2022-08-19T09:22:45;91113.53;;;30.15;33.90
3464;BME280;3551;41.578;24.706;2022-08-19T09:25:16;91097.75;;;29.85;33.72
3464;BME280;3551;41.578;24.706;2022-08-19T09:27:45;91117.59;;;30.08;34.88
3464;BME280;3551;41.578;24.706;2022-08-19T09:30:17;91092.16;;;30.21;34.30
3464;BME280;3551;41.578;24.706;2022-08-19T09:32:46;91104.53;;;30.33;34.63
3464;BME280;3551;41.578;24.706;2022-08-19T09:35:15;91095.13;;;30.23;32.45
3464;BME280;3551;41.578;24.706;2022-08-19T09:37:42;91093.94;;;30.18;33.07
3464;BME280;3551;41.578;24.706;2022-08-19T09:40:11;91074.44;;;30.10;35.17
3464;BME280;3551;41.578;24.706;2022-08-19T09:42:38;91085.88;;;30.20;33.25
3464;BME280;3551;41.578;24.706;2022-08-19T09:45:07;91071.03;;;29.99;33.22
3464;BME280;3551;41.578;24.706;2022-08-19T09:47:34;91084.53;;;30.02;32.57
3464;BME280;3551;41.578;24.706;2022-08-19T09:50:04;91074.00;;;30.01;33.04
3464;BME280;3551;41.578;24.706;2022-08-19T09:52:32;91073.44;;;29.78;32.80
3464;BME280;3551;41.578;24.706;2022-08-19T09:55:02;91064.88;;;29.87;34.57
3464;BME280;3551;41.578;24.706;2022-08-19T09:57:29;91079.31;;;30.23;36.14
3464;BME280;3551;41.578;24.706;2022-08-19T09:59:58;91054.72;;;30.25;34.73
3464;BME280;3551;41.578;24.706;2022-08-19T10:02:26;91060.00;;;30.23;36.13
3464;BME280;3551;41.578;24.706;2022-08-19T10:04:53;91064.38;;;30.13;36.50
3464;BME280;3551;41.578;24.706;2022-08-19T10:07:38;91053.69;;;30.28;37.97
3464;BME280;3551;41.578;24.706;2022-08-19T10:10:06;91059.75;;;30.21;37.08
3464;BME280;3551;41.578;24.706;2022-08-19T10:12:35;91054.03;;;30.43;36.27
3464;BME280;3551;41.578;24.706;2022-08-19T10:15:03;91067.84;;;30.43;35.75
3464;BME280;3551;41.578;24.706;2022-08-19T10:17:32;91074.13;;;30.44;36.91
3464;BME280;3551;41.578;24.706;2022-08-19T10:20:00;91054.50;;;30.23;35.75
3464;BME280;3551;41.578;24.706;2022-08-19T10:22:29;91047.53;;;29.92;35.75
3464;BME280;3551;41.578;24.706;2022-08-19T10:24:56;91057.31;;;30.18;35.72
3464;BME280;3551;41.578;24.706;2022-08-19T10:27:23;91045.94;;;30.27;36.57
3464;BME280;3551;41.578;24.706;2022-08-19T10:29:50;91074.88;;;30.44;35.88
3464;BME280;3551;41.578;24.706;2022-08-19T10:32:17;91061.81;;;30.63;37.43
3464;BME280;3551;41.578;24.706;2022-08-19T10:34:46;91057.19;;;30.53;35.57
3464;BME280;3551;41.578;24.706;2022-08-19T10:37:15;91045.75;;;30.43;35.48
3464;BME280;3551;41.578;24.706;2022-08-19T10:39:45;91057.56;;;30.44;37.37
3464;BME280;3551;41.578;24.706;2022-08-19T10:42:13;91051.78;;;30.18;36.45
3464;BME280;3551;41.578;24.706;2022-08-19T10:44:42;91056.28;;;30.21;36.74
3464;BME280;3551;41.578;24.706;2022-08-19T10:47:10;91039.09;;;30.09;37.56
3464;BME280;3551;41.578;24.706;2022-08-19T10:49:37;91059.09;;;30.15;36.61
3464;BME280;3551;41.578;24.706;2022-08-19T10:52:26;91051.38;;;30.08;37.39
3464;BME280;3551;41.578;24.706;2022-08-19T10:55:03;91043.59;;;30.12;35.62
3464;BME280;3551;41.578;24.706;2022-08-19T10:57:48;91056.66;;;30.30;36.42
3464;BME280;3551;41.578;24.706;2022-08-19T11:00:16;91055.06;;;30.40;36.86
3464;BME280;3551;41.578;24.706;2022-08-19T11:02:43;91057.06;;;30.64;35.59
3464;BME280;3551;41.578;24.706;2022-08-19T11:05:11;91038.22;;;30.44;36.50
3464;BME280;3551;41.578;24.706;2022-08-19T11:07:41;91036.50;;;30.41;36.79
3464;BME280;3551;41.578;24.706;2022-08-19T11:10:12;91049.81;;;30.61;36.83
3464;BME280;3551;41.578;24.706;2022-08-19T11:12:40;91031.66;;;29.98;38.34
3464;BME280;3551;41.578;24.706;2022-08-19T11:15:08;91041.31;;;30.10;38.93
3464;BME280;3551;41.578;24.706;2022-08-19T11:17:37;91019.16;;;29.97;40.14
3464;BME280;3551;41.578;24.706;2022-08-19T11:20:08;91037.78;;;29.91;40.19
3464;BME280;3551;41.578;24.706;2022-08-19T11:22:35;91043.88;;;30.08;41.04
3464;BME280;3551;41.578;24.706;2022-08-19T11:25:04;91030.81;;;30.09;39.67
3464;BME280;3551;41.578;24.706;2022-08-19T11:27:31;91033.38;;;30.26;39.69
3464;BME280;3551;41.578;24.706;2022-08-19T11:29:59;91034.19;;;29.96;40.14
3464;BME280;3551;41.578;24.706;2022-08-19T11:32:26;91036.63;;;29.76;40.50
3464;BME280;3551;41.578;24.706;2022-08-19T11:34:53;91025.19;;;29.66;40.36
3464;BME280;3551;41.578;24.706;2022-08-19T11:37:20;91022.69;;;29.68;39.78
3464;BME280;3551;41.578;24.706;2022-08-19T11:39:47;91040.31;;;29.54;40.58
3464;BME280;3551;41.578;24.706;2022-08-19T11:42:17;91040.00;;;29.63;39.99
3464;BME280;3551;41.578;24.706;2022-08-19T11:45:02;91033.75;;;29.33;39.71
3464;BME280;3551;41.578;24.706;2022-08-19T11:47:29;91037.06;;;29.55;39.78
3464;BME280;3551;41.578;24.706;2022-08-19T11:49:57;91031.66;;;29.69;39.75
3464;BME280;3551;41.578;24.706;2022-08-19T11:52:23;91030.09;;;29.79;40.69
3464;BME280;3551;41.578;24.706;2022-08-19T11:54:50;91001.94;;;29.62;39.40
3464;BME280;3551;41.578;24.706;2022-08-19T11:57:19;91019.97;;;29.63;39.48
3464;BME280;3551;41.578;24.706;2022-08-19T11:59:50;91035.50;;;29.90;40.57
3464;BME280;3551;41.578;24.706;2022-08-19T12:02:17;91039.16;;;29.74;39.94
3464;BME280;3551;41.578;24.706;2022-08-19T12:04:44;91022.63;;;29.74;41.47
3464;BME280;3551;41.578;24.706;2022-08-19T12:07:11;90989.69;;;29.57;41.13
3464;BME280;3551;41.578;24.706;2022-08-19T12:09:38;91019.88;;;29.74;40.94
3464;BME280;3551;41.578;24.706;2022-08-19T12:12:06;91018.09;;;29.76;40.71
3464;BME280;3551;41.578;24.706;2022-08-19T12:14:35;91009.66;;;29.39;41.81
3464;BME280;3551;41.578;24.706;2022-08-19T12:17:02;91021.16;;;29.67;41.17
3464;BME280;3551;41.578;24.706;2022-08-19T12:19:32;91011.78;;;29.51;40.75
3464;BME280;3551;41.578;24.706;2022-08-19T12:22:00;91025.66;;;29.40;41.26
3464;BME280;3551;41.578;24.706;2022-08-19T12:24:30;91006.75;;;29.26;41.03
3464;BME280;3551;41.578;24.706;2022-08-19T12:26:57;90997.97;;;29.27;41.43
3464;BME280;3551;41.578;24.706;2022-08-19T12:29:27;91012.69;;;29.35;41.33
3464;BME280;3551;41.578;24.706;2022-08-19T12:31:57;91012.47;;;29.33;41.05
3464;BME280;3551;41.578;24.706;2022-08-19T12:34:27;91009.44;;;29.31;40.93
3464;BME280;3551;41.578;24.706;2022-08-19T12:36:56;91026.28;;;29.22;40.29
3464;BME280;3551;41.578;24.706;2022-08-19T12:39:24;91011.28;;;29.18;41.44
3464;BME280;3551;41.578;24.706;2022-08-19T12:45:03;91007.28;;;29.24;40.90
3464;BME280;3551;41.578;24.706;2022-08-19T12:47:32;90979.94;;;28.91;40.86
3464;BME280;3551;41.578;24.706;2022-08-19T12:50:01;90988.88;;;29.02;40.91
3464;BME280;3551;41.578;24.706;2022-08-19T12:52:38;90996.78;;;29.17;40.74
3464;BME280;3551;41.578;24.706;2022-08-19T12:55:11;90996.94;;;28.95;40.97
3464;BME280;3551;41.578;24.706;2022-08-19T12:57:39;90994.91;;;29.01;40.39
3464;BME280;3551;41.578;24.706;2022-08-19T13:00:10;90981.22;;;28.84;40.61
3464;BME280;3551;41.578;24.706;2022-08-19T13:02:44;90977.25;;;28.80;40.92
3464;BME280;3551;41.578;24.706;2022-08-19T13:05:15;90978.78;;;28.75;40.70
3464;BME280;3551;41.578;24.706;2022-08-19T13:10:13;91019.34;;;29.16;41.65
3464;BME280;3551;41.578;24.706;2022-08-19T13:12:53;91017.13;;;29.09;40.62
3464;BME280;3551;41.578;24.706;2022-08-19T13:15:25;91020.41;;;29.01;40.74
3464;BME280;3551;41.578;24.706;2022-08-19T13:17:55;91016.22;;;28.95;40.89
3464;BME280;3551;41.578;24.706;2022-08-19T13:20:23;91017.94;;;28.98;40.19
3464;BME280;3551;41.578;24.706;2022-08-19T13:22:51;91013.28;;;28.82;40.13
3464;BME280;3551;41.578;24.706;2022-08-19T13:25:18;90971.09;;;28.68;40.28
3464;BME280;3551;41.578;24.706;2022-08-19T13:27:47;91013.72;;;28.91;40.30